createdAt,value
2019-02-05T00:00:50.933Z,23.60
2019-02-05T00:03:23.939Z,22.10
2019-02-05T00:05:55.379Z,22.97
2019-02-05T00:08:26.259Z,25.10
2019-02-05T00:10:57.939Z,25.27
2019-02-05T00:13:28.739Z,23.50
2019-02-05T00:15:59.944Z,23.40
2019-02-05T00:18:31.139Z,24.23
2019-02-05T00:21:02.196Z,22.50
2019-02-05T00:23:33.099Z,22.93
2019-02-05T00:26:06.568Z,25.07
2019-02-05T00:28:37.339Z,26.10
2019-02-05T00:31:08.619Z,25.97
2019-02-05T00:33:39.499Z,27.13
2019-02-05T00:36:11.299Z,22.07
2019-02-05T00:38:42.139Z,20.67
2019-02-05T00:41:14.581Z,23.10
2019-02-05T00:43:45.863Z,21.30
2019-02-05T00:46:16.701Z,24.93
2019-02-05T00:48:48.546Z,22.80
2019-02-05T00:51:19.656Z,21.43
2019-02-05T00:53:50.816Z,19.83
2019-02-05T00:56:21.896Z,20.87
2019-02-05T00:58:52.983Z,20.07
2019-02-05T01:01:24.216Z,20.37
2019-02-05T01:03:55.464Z,20.50
2019-02-05T01:06:26.856Z,18.13
2019-02-05T01:08:58.072Z,19.13
2019-02-05T01:11:29.176Z,19.97
2019-02-05T01:14:00.136Z,21.70
2019-02-05T01:16:32.657Z,20.40
2019-02-05T01:19:03.976Z,20.07
2019-02-05T01:21:35.217Z,20.63
2019-02-05T01:24:06.616Z,21.47
2019-02-05T01:26:37.736Z,20.80
2019-02-05T01:29:09.856Z,20.93
2019-02-05T01:31:41.658Z,21.23
2019-02-05T01:34:13.696Z,20.27
2019-02-05T01:36:44.457Z,20.53
2019-02-05T01:39:16.296Z,21.47
2019-02-05T01:41:47.337Z,21.00
2019-02-05T01:44:18.256Z,21.40
2019-02-05T01:46:49.357Z,20.83
2019-02-05T01:49:21.075Z,20.37
2019-02-05T01:51:51.995Z,21.47
2019-02-05T01:54:22.795Z,21.53
2019-02-05T01:56:53.683Z,22.23
2019-02-05T01:59:25.115Z,21.27
2019-02-05T02:01:56.163Z,23.83
2019-02-05T02:04:27.435Z,22.87
2019-02-05T02:06:59.517Z,23.17
2019-02-05T02:09:30.596Z,22.20
2019-02-05T02:12:01.475Z,23.53
2019-02-05T02:14:32.517Z,23.90
2019-02-05T02:17:03.399Z,22.83
2019-02-05T02:19:36.115Z,21.10
2019-02-05T02:22:07.755Z,19.63
2019-02-05T02:24:38.716Z,19.30
2019-02-05T02:27:11.235Z,18.90
2019-02-05T02:29:41.995Z,21.83
2019-02-05T02:32:13.683Z,23.23
2019-02-05T02:34:44.595Z,21.07
2019-02-05T02:37:16.835Z,20.23
2019-02-05T02:39:47.637Z,23.40
2019-02-05T02:42:19.035Z,22.50
2019-02-05T02:44:50.116Z,24.13
2019-02-05T02:47:21.011Z,19.87
2019-02-05T02:49:51.973Z,24.60
2019-02-05T02:52:23.131Z,24.33
2019-02-05T02:54:54.261Z,24.00
2019-02-05T02:57:26.331Z,24.33
2019-02-05T02:59:57.091Z,21.70
2019-02-05T03:02:28.335Z,23.67
2019-02-05T03:04:59.212Z,24.83
2019-02-05T03:07:30.251Z,24.67
2019-02-05T03:10:01.252Z,25.00
2019-02-05T03:12:35.251Z,30.00
2019-02-05T03:15:07.171Z,28.67
2019-02-05T03:17:38.532Z,30.80
2019-02-05T03:20:10.612Z,28.33
2019-02-05T03:22:41.373Z,29.07
2019-02-05T03:25:14.491Z,30.20
2019-02-05T03:27:45.333Z,24.70
2019-02-05T03:30:18.657Z,27.67
2019-02-05T03:32:50.175Z,28.67
2019-02-05T03:35:21.691Z,30.17
2019-02-05T03:37:53.091Z,33.80
2019-02-05T03:41:01.859Z,33.73
2019-02-05T03:43:36.146Z,33.27
2019-02-05T03:46:15.105Z,35.23
2019-02-05T03:48:48.584Z,31.00
2019-02-05T03:51:28.271Z,32.63
2019-02-05T03:54:23.505Z,32.00
2019-02-05T03:57:30.606Z,29.63
2019-02-05T04:00:20.780Z,29.33
2019-02-05T04:03:03.220Z,31.33
2019-02-05T04:05:48.635Z,30.67
2019-02-05T04:08:48.384Z,30.57
2019-02-05T04:11:57.313Z,30.70
2019-02-05T04:15:06.791Z,28.87
2019-02-05T04:18:08.186Z,24.70
2019-02-05T04:21:12.944Z,29.77
2019-02-05T04:24:14.373Z,33.47
2019-02-05T04:27:23.825Z,26.40
2019-02-05T04:30:20.785Z,24.97
2019-02-05T04:33:12.673Z,30.03
2019-02-05T04:36:07.552Z,29.93
2019-02-05T04:39:08.820Z,30.67
2019-02-05T04:42:18.024Z,27.57
2019-02-05T04:45:15.071Z,27.30
2019-02-05T04:48:24.226Z,29.80
2019-02-05T04:51:33.181Z,32.90
2019-02-05T04:54:11.984Z,30.70
2019-02-05T04:56:59.469Z,20.40
2019-02-05T05:00:02.554Z,26.93
2019-02-05T05:02:50.625Z,28.10
2019-02-05T05:05:59.545Z,27.20
2019-02-05T05:09:00.160Z,27.40
2019-02-05T05:11:31.264Z,28.13
2019-02-05T05:14:02.346Z,24.47
2019-02-05T05:16:33.265Z,26.03
2019-02-05T05:19:05.108Z,25.40
2019-02-05T05:21:37.611Z,25.50
2019-02-05T05:24:09.454Z,21.47
2019-02-05T05:26:40.865Z,22.83
2019-02-05T05:29:11.946Z,27.97
2019-02-05T05:31:46.508Z,27.33
2019-02-05T05:34:20.344Z,23.30
2019-02-05T05:36:52.304Z,24.13
2019-02-05T05:39:27.306Z,22.60
2019-02-05T05:42:05.905Z,22.37
2019-02-05T05:44:44.144Z,19.70
2019-02-05T05:47:15.228Z,15.80
2019-02-05T05:49:51.506Z,19.47
2019-02-05T05:52:22.547Z,21.00
2019-02-05T05:54:53.583Z,16.63
2019-02-05T05:57:28.253Z,19.27
2019-02-05T05:59:59.747Z,17.47
2019-02-05T06:02:30.704Z,18.40
2019-02-05T06:05:06.466Z,18.20
2019-02-05T06:07:43.833Z,18.47
2019-02-05T06:10:15.904Z,7.17
2019-02-05T06:12:48.106Z,20.50
2019-02-05T06:15:20.516Z,18.50
2019-02-05T06:17:53.624Z,20.60
2019-02-05T06:20:25.221Z,19.47
2019-02-05T06:22:56.553Z,14.90
2019-02-05T06:25:27.466Z,18.20
2019-02-05T06:27:58.373Z,20.07
2019-02-05T06:30:29.744Z,19.47
2019-02-05T06:33:00.664Z,12.57
2019-02-05T06:35:31.586Z,16.77
2019-02-05T06:38:02.624Z,14.23
2019-02-05T06:40:34.105Z,12.67
2019-02-05T06:43:10.454Z,8.43
2019-02-05T06:45:48.864Z,11.47
2019-02-05T06:48:26.294Z,17.27
2019-02-05T06:51:04.033Z,11.70
2019-02-05T06:53:37.185Z,13.37
2019-02-05T06:56:08.050Z,10.80
2019-02-05T06:58:46.446Z,15.63
2019-02-05T07:01:12.268Z,12.13
2019-02-05T07:03:43.618Z,8.00
2019-02-05T07:06:14.746Z,15.80
2019-02-05T07:08:54.264Z,15.40
2019-02-05T07:11:38.445Z,14.40
2019-02-05T07:14:16.504Z,16.00
2019-02-05T07:29:44.296Z,18.13
2019-02-05T07:32:16.483Z,16.93
2019-02-05T07:34:48.686Z,16.60
2019-02-05T07:37:21.644Z,15.00
2019-02-05T07:39:55.244Z,15.37
2019-02-05T07:42:27.443Z,15.07
2019-02-05T07:45:01.442Z,14.40
2019-02-05T07:47:35.575Z,11.13
2019-02-05T07:50:15.647Z,22.57
2019-02-05T07:52:50.365Z,17.50
2019-02-05T07:55:25.282Z,10.53
2019-02-05T07:57:57.522Z,10.03
2019-02-05T08:00:29.364Z,13.13
2019-02-05T08:03:01.404Z,14.70
2019-02-05T08:05:33.364Z,16.23
2019-02-05T08:08:05.002Z,10.87
2019-02-05T08:10:37.077Z,13.63
2019-02-05T08:13:08.404Z,15.37
2019-02-05T08:15:39.603Z,13.00
2019-02-05T08:18:12.244Z,15.47
2019-02-05T08:20:44.443Z,14.13
2019-02-05T08:23:15.323Z,12.40
2019-02-05T08:25:47.005Z,13.57
2019-02-05T08:28:18.003Z,12.87
2019-02-05T08:30:49.628Z,10.80
2019-02-05T08:33:21.076Z,9.97
2019-02-05T08:35:52.149Z,12.73
2019-02-05T08:38:22.870Z,10.30
2019-02-05T08:40:54.508Z,15.97
2019-02-05T08:43:25.549Z,13.43
2019-02-05T08:45:57.028Z,11.87
2019-02-05T08:48:28.428Z,13.07
2019-02-05T08:50:59.669Z,15.60
2019-02-05T08:53:31.068Z,11.47
2019-02-05T08:56:01.750Z,13.17
2019-02-05T08:58:32.830Z,14.70
2019-02-05T09:01:03.868Z,13.63
2019-02-05T09:03:34.956Z,7.90
2019-02-05T09:06:06.068Z,15.73
2019-02-05T09:08:38.508Z,10.57
2019-02-05T13:14:40.072Z,20.77
2019-02-05T13:17:10.558Z,22.27
2019-02-05T13:19:42.084Z,21.27
2019-02-05T13:22:12.488Z,21.73
2019-02-05T13:24:43.535Z,20.20
2019-02-05T13:27:14.018Z,21.00
2019-02-05T13:29:45.015Z,22.03
2019-02-05T13:32:16.050Z,19.30
2019-02-05T13:34:46.613Z,21.07
2019-02-05T13:37:17.328Z,23.70
2019-02-05T13:39:48.958Z,23.63
2019-02-05T13:42:19.734Z,21.03
2019-02-05T13:44:50.315Z,20.73
2019-02-05T13:47:21.152Z,19.93
2019-02-05T13:49:52.208Z,18.37
2019-02-05T13:52:22.940Z,21.00
2019-02-05T13:54:55.378Z,21.23
2019-02-05T13:57:26.906Z,20.03
2019-02-05T13:59:58.051Z,23.10
2019-02-05T14:02:30.114Z,24.07
2019-02-05T14:05:00.755Z,24.47
2019-02-05T14:07:31.496Z,27.17
2019-02-05T14:10:02.483Z,21.47
2019-02-05T14:12:32.858Z,23.80
2019-02-05T14:15:04.212Z,24.17
2019-02-05T14:17:35.856Z,21.10
2019-02-05T14:20:07.732Z,26.90
2019-02-05T14:22:38.255Z,25.40
2019-02-05T14:25:10.854Z,24.70
2019-02-05T14:27:41.405Z,25.43
2019-02-05T14:30:22.735Z,23.60
2019-02-05T14:32:53.266Z,25.03
2019-02-05T14:35:24.025Z,23.90
2019-02-05T14:37:55.255Z,23.50
2019-02-05T14:40:25.991Z,25.53
2019-02-05T14:42:56.802Z,27.37
2019-02-05T14:45:30.074Z,26.13
2019-02-05T14:48:01.168Z,28.67
2019-02-05T14:50:32.661Z,27.63
2019-02-05T14:53:03.497Z,29.53
2019-02-05T14:55:34.054Z,28.00
2019-02-05T14:58:05.855Z,26.73
2019-02-05T15:00:37.062Z,29.60
2019-02-05T15:03:09.378Z,28.23
2019-02-05T15:05:40.610Z,25.40
2019-02-05T15:08:12.130Z,27.63
2019-02-05T15:10:42.684Z,28.07
2019-02-05T15:13:15.874Z,29.73
2019-02-05T15:15:46.157Z,28.30
2019-02-05T15:18:19.410Z,27.73
2019-02-05T15:20:52.149Z,27.37
2019-02-05T15:23:23.065Z,27.73
2019-02-05T15:25:54.111Z,36.83
2019-02-05T15:28:24.579Z,27.30
2019-02-05T15:30:55.525Z,29.53
2019-02-05T15:33:35.760Z,31.30
2019-02-05T15:36:16.991Z,31.97
2019-02-05T15:38:49.239Z,29.83
2019-02-05T15:41:19.836Z,31.23
2019-02-05T15:43:50.225Z,30.93
2019-02-05T15:46:20.710Z,30.50
2019-02-05T15:48:54.437Z,32.23
2019-02-05T15:51:25.041Z,31.90
2019-02-05T15:53:56.017Z,30.47
2019-02-05T15:56:27.028Z,32.17
2019-02-05T15:58:57.527Z,34.60
2019-02-05T16:01:28.589Z,31.17
2019-02-05T16:03:59.365Z,29.60
2019-02-05T16:06:30.093Z,30.80
2019-02-05T16:09:01.028Z,29.90
2019-02-05T16:11:33.311Z,31.80
2019-02-05T16:14:04.005Z,32.67
2019-02-05T16:16:34.618Z,32.23
2019-02-05T16:19:05.295Z,29.83
2019-02-05T16:21:35.721Z,32.57
2019-02-05T16:24:06.711Z,33.47
2019-02-05T16:26:37.102Z,35.57
2019-02-05T16:29:09.048Z,34.87
2019-02-05T16:31:40.663Z,39.80
2019-02-05T16:34:11.427Z,37.07
2019-02-05T16:36:41.907Z,39.50
2019-02-05T16:39:14.003Z,38.33
2019-02-05T16:41:45.381Z,35.57
2019-02-05T16:44:15.752Z,41.30
2019-02-05T16:46:46.599Z,35.37
2019-02-05T16:49:17.331Z,35.10
2019-02-05T16:51:47.759Z,35.30
2019-02-05T16:54:18.156Z,37.37
2019-02-05T16:56:48.527Z,36.50
2019-02-05T16:59:19.933Z,38.50
2019-02-05T17:01:50.315Z,38.60
2019-02-05T17:04:20.710Z,37.00
2019-02-05T17:06:52.395Z,40.33
2019-02-05T17:09:23.601Z,43.13
2019-02-05T17:11:56.872Z,41.00
2019-02-05T17:14:26.503Z,37.60
2019-02-05T17:16:57.351Z,37.83
2019-02-05T17:19:28.361Z,39.57
2019-02-05T17:22:02.383Z,39.17
2019-02-05T17:24:32.927Z,41.10
2019-02-05T17:27:03.304Z,39.27
2019-02-05T17:29:33.847Z,45.03
2019-02-05T17:32:07.745Z,45.47
2019-02-05T17:34:39.187Z,44.13
2019-02-05T17:37:12.757Z,46.87
2019-02-05T17:39:43.330Z,45.23
2019-02-05T17:42:14.603Z,48.17
2019-02-05T17:44:45.335Z,46.87
2019-02-05T17:47:17.039Z,50.13
2019-02-05T17:49:47.904Z,45.03
2019-02-05T17:52:18.935Z,49.80
2019-02-05T17:54:52.267Z,46.90
2019-02-05T17:57:22.946Z,49.40
2019-02-05T17:59:54.208Z,46.57
2019-02-05T18:02:25.181Z,49.73
2019-02-05T18:04:55.764Z,49.73
2019-02-05T18:07:26.566Z,53.30
2019-02-05T18:09:57.528Z,54.13
2019-02-05T18:12:28.426Z,54.13
2019-02-05T18:14:59.329Z,55.33
2019-02-05T18:17:30.087Z,52.87
2019-02-05T18:20:01.019Z,51.83
2019-02-05T18:22:32.194Z,51.57
2019-02-05T18:25:02.907Z,50.03
2019-02-05T18:27:34.197Z,52.60
2019-02-05T18:30:08.185Z,54.83
2019-02-05T18:32:40.629Z,49.23
2019-02-05T18:35:11.761Z,55.20
2019-02-05T18:37:42.473Z,52.23
2019-02-05T18:40:14.235Z,54.37
2019-02-05T18:42:45.041Z,54.70
2019-02-05T18:45:16.582Z,57.77
2019-02-05T18:47:46.963Z,55.10
2019-02-05T18:50:19.879Z,59.27
2019-02-05T18:52:50.675Z,58.70
2019-02-05T18:55:22.304Z,62.70
2019-02-05T18:57:53.048Z,62.20
2019-02-05T19:00:26.494Z,61.30
2019-02-05T19:02:57.733Z,61.13
2019-02-05T19:05:28.541Z,59.60
2019-02-05T19:07:58.963Z,59.20
2019-02-05T19:10:32.071Z,61.57
2019-02-05T19:13:02.765Z,64.87
2019-02-05T19:15:34.925Z,60.73
2019-02-05T19:18:06.859Z,58.87
2019-02-05T19:20:37.519Z,60.03
2019-02-05T19:23:09.126Z,65.57
2019-02-05T19:26:02.175Z,61.10
2019-02-05T19:28:37.052Z,65.90
2019-02-05T19:31:26.595Z,64.33
2019-02-05T19:33:56.935Z,59.63
2019-02-05T19:36:31.257Z,59.93
2019-02-05T19:39:01.600Z,67.43
2019-02-05T19:41:34.386Z,63.80
2019-02-05T19:44:05.053Z,63.03
2019-02-05T19:46:54.224Z,62.27
2019-02-05T19:49:42.318Z,63.67
2019-02-05T19:52:13.009Z,63.43
2019-02-05T19:54:43.458Z,63.90
2019-02-05T19:57:13.849Z,60.40
2019-02-05T19:59:44.742Z,66.90
2019-02-05T20:02:15.565Z,65.10
2019-02-05T20:04:46.005Z,69.57
2019-02-05T20:07:16.335Z,64.30
2019-02-05T20:09:46.743Z,65.13
2019-02-05T20:12:17.264Z,64.40
2019-02-05T20:14:48.051Z,53.23
2019-02-05T20:17:18.730Z,62.40
2019-02-05T20:19:49.211Z,52.60
2019-02-05T20:22:19.638Z,61.23
2019-02-05T20:24:50.106Z,66.10
2019-02-05T20:27:20.625Z,61.87
2019-02-05T20:29:51.657Z,65.77
2019-02-05T20:32:22.280Z,63.67
2019-02-05T20:34:53.003Z,66.50
2019-02-05T20:37:23.434Z,66.00
2019-02-05T20:39:53.976Z,65.87
2019-02-05T20:42:24.636Z,66.70
2019-02-05T20:44:55.082Z,70.70
2019-02-05T20:47:25.758Z,63.03
2019-02-05T20:49:56.262Z,64.73
2019-02-05T20:52:27.031Z,67.03
2019-02-05T20:54:57.451Z,67.53
2019-02-05T20:57:27.819Z,61.90
2019-02-05T20:59:58.447Z,62.13
2019-02-05T21:02:28.959Z,61.47
2019-02-05T21:04:59.366Z,67.30
2019-02-05T21:07:29.718Z,64.73
2019-02-05T21:10:00.067Z,63.40
2019-02-05T21:12:30.479Z,63.80
2019-02-05T21:15:01.014Z,64.47
2019-02-05T21:17:31.467Z,65.80
2019-02-05T21:20:01.785Z,62.20
2019-02-05T21:22:32.200Z,66.33
2019-02-05T21:25:02.543Z,63.43
2019-02-05T21:27:33.127Z,64.63
2019-02-05T21:30:05.044Z,69.17
2019-02-05T21:32:35.517Z,58.20
2019-02-05T21:35:06.889Z,63.00
2019-02-05T21:37:37.286Z,63.03
2019-02-05T21:40:10.894Z,62.57
2019-02-05T21:42:41.327Z,59.93
2019-02-05T21:45:14.049Z,62.90
2019-02-05T21:47:44.463Z,62.37
2019-02-05T21:50:17.491Z,62.80
2019-02-05T21:52:48.660Z,63.47
2019-02-05T21:55:19.942Z,59.93
2019-02-05T21:57:50.278Z,60.87
2019-02-05T22:00:24.046Z,61.33
2019-02-05T22:02:54.614Z,61.33
2019-02-05T22:05:26.092Z,64.30
2019-02-05T22:07:56.955Z,59.33
2019-02-05T22:10:27.596Z,59.93
2019-02-05T22:12:58.339Z,60.57
2019-02-05T22:15:29.658Z,60.23
2019-02-05T22:18:00.346Z,63.00
2019-02-05T22:20:32.004Z,67.00
2019-02-05T22:23:02.563Z,62.87
2019-02-05T22:25:33.168Z,59.77
2019-02-05T22:28:03.895Z,63.67
2019-02-05T22:30:35.569Z,61.07
2019-02-05T22:33:08.108Z,63.13
2019-02-05T22:35:38.474Z,61.10
2019-02-05T22:38:09.038Z,62.07
2019-02-05T22:40:39.699Z,63.30
2019-02-05T22:43:10.582Z,62.10
2019-02-05T22:45:41.298Z,58.33
2019-02-05T22:48:11.919Z,60.40
2019-02-05T22:50:42.671Z,60.87
2019-02-05T22:53:13.127Z,61.70
2019-02-05T22:55:43.535Z,56.17
2019-02-05T22:58:13.971Z,60.53
2019-02-05T23:01:23.290Z,58.90
2019-02-05T23:03:59.228Z,62.57
2019-02-05T23:06:57.831Z,66.07
2019-02-05T23:09:56.451Z,59.83
2019-02-05T23:12:48.280Z,57.37
2019-02-05T23:15:29.187Z,60.43
2019-02-05T23:18:00.826Z,64.17
2019-02-05T23:20:31.989Z,58.80
2019-02-05T23:23:02.404Z,44.57
2019-02-05T23:25:32.967Z,57.30
2019-02-05T23:28:03.508Z,59.27
2019-02-05T23:30:33.855Z,61.47
2019-02-05T23:33:04.681Z,60.30
2019-02-05T23:35:34.949Z,58.03
2019-02-05T23:38:05.671Z,57.37
2019-02-05T23:40:36.114Z,55.17
2019-02-05T23:43:10.082Z,56.93
2019-02-05T23:45:40.488Z,54.33
2019-02-05T23:48:11.030Z,58.27
2019-02-05T23:50:43.194Z,60.03
2019-02-05T23:53:13.628Z,51.60
2019-02-05T23:55:44.168Z,52.47
2019-02-05T23:58:14.559Z,57.43
